Welkom op onze vernieuwde website. Er wordt nog verder aan gewerkt.


Bezoek ook deze websites:

Template documentation
and downloads

And another site




METAR rapporten vliegvelden


Warning: A non-numeric value encountered in /home/public/sites/www.plaatinfo.nl/weather28/metar/metarDisplay.php on line 166
   
EHVK - Volkel Rnlafb, Netherlands
Afstand tot: ZW 18 km
Gewijzigd: 14-05-2021 13:12
Bewolking  
Bewolking  
   Wind: varieert 7.4 km/h
Wind: varieert 7.4 km/h
Temperatuur: 16°C
Dauwpunt: 7°C
Vochtigheid: 55%
Barometer: 1007 mb
Bewolking: Bewolking
Zicht: meer dan 10 km
Bewolking: Grotendeels bewolkt 1219.2 m,
Grotendeels bewolkt 1706.9 m,
Bewolking 4876.8 m
EHVK 141112Z AUTO VRB04KT 9999 BKN040 BKN056 OVC160 16/07 Q1007 BLU NOSIG
EDLV - Niederrhein, Germany
Afstand tot: ZO 25 km
Gewijzigd: 14-05-2021 12:50
Helder  
Helder  
   Wind: Westen 11.1 km/h
Wind: Westen 11.1 km/h
Temperatuur: 15°C
Dauwpunt: 6°C
Vochtigheid: 55%
Barometer: 1007 mb
Zicht: meer dan 10 km
Bewolking: Helder
EDLV 141050Z 26006KT 230V290 CAVOK 15/06 Q1007
EHDL - Deelen Rnlafb, Netherlands
Afstand tot: N 35 km
Gewijzigd: 14-05-2021 12:55
Bewolking  
Bewolking  
   Wind: varieert 9.3 km/h
Wind: varieert 9.3 km/h
Temperatuur: 12°C
Dauwpunt: 8°C
Vochtigheid: 77%
Barometer: 1008 mb
Bewolking: Bewolking
Zicht: meer dan 10 km
Bewolking: Licht bewolkt 426.7 m,
Grotendeels bewolkt 518.2 m,
Bewolking 701 m
EHDL 141055Z AUTO VRB05KT 9999 FEW014 BKN017 OVC023 12/08 Q1008 WHT
EHEH - Eindhoven Rnlafb, Netherlands
Afstand tot: ZW 48 km
Gewijzigd: 14-05-2021 12:55
Grotendeels bewolkt  
Grotendeels bewolkt  
   Wind: NW 7.4 km/h
Wind: NW 7.4 km/h
Temperatuur: 16°C
Dauwpunt: 5°C
Vochtigheid: 48%
Barometer: 1007 mb
Bewolking: Grotendeels bewolkt
Zicht: meer dan 10 km
Bewolking: Grotendeels bewolkt 1310.6 m,
Grotendeels bewolkt 1859.3 m
EHEH 141055Z AUTO 32004KT 340V150 9999 BKN043 BKN061 16/05 Q1007 BLU NOSIG
EHGR - Gilze-Rijen Rnla, Netherlands
Afstand tot: WZW 70 km
Gewijzigd: 14-05-2021 12:55
Grotendeels bewolkt  
Grotendeels bewolkt  
   Wind: varieert 3.7 km/h
Wind: varieert 3.7 km/h
Temperatuur: 17°C
Dauwpunt: 7°C
Vochtigheid: 52%
Barometer: 1007 mb
Bewolking: Grotendeels bewolkt
Zicht: meer dan 10 km
Bewolking: Grotendeels bewolkt 1280.2 m,
Grotendeels bewolkt 1402.1 m,
Grotendeels bewolkt 5791.2 m
EHGR 141055Z AUTO VRB02KT 9999 BKN042 BKN046 BKN190 17/07 Q1007 BLU
EBBL - Kleine-Brogel(Ba, Belgium
Afstand tot: ZZW 71 km
Gewijzigd: 13-05-2021 07:55
Verouderd
Bewolking  
Bewolking  
   Wind: varieert 3.7 km/h
Wind: varieert 3.7 km/h
Temperatuur: 10°C
Dauwpunt: 9°C
Vochtigheid: 94%
Barometer: 1007 mb
Bewolking: Bewolking
Zicht: meer dan 10 km
Bewolking: Bewolking 3048 m
EBBL 130555Z AUTO VRB02KT 9999 OVC100/// 10/09 Q1007 BLU

Script ontwikkeld door  Saratoga-weather.org Aangepast voor de template door  Weerstation Leuven

Apparatuur in gebruik:

Weerstation
Davis VP Vue

Weerprogramma
Meteobridge

Weercomputer
MeteoBridge Red +

Webleverancier
mijn provider

Davis VP Vue

Meteobridge

MeteoBridge Red +

mijn provider